sensor_id;sensor_type;location;lat;lon;timestamp;P1;durP1;ratioP1;P2;durP2;ratioP2
10661;SDS011;5379;51.034;7.006;2022-11-11T00:01:38;6.03;;;3.40;;
10661;SDS011;5379;51.034;7.006;2022-11-11T00:04:05;4.27;;;3.30;;
10661;SDS011;5379;51.034;7.006;2022-11-11T00:06:32;6.00;;;3.73;;
10661;SDS011;5379;51.034;7.006;2022-11-11T00:09:00;4.60;;;3.37;;
10661;SDS011;5379;51.034;7.006;2022-11-11T00:11:27;7.30;;;3.70;;
10661;SDS011;5379;51.034;7.006;2022-11-11T00:13:54;4.77;;;3.47;;
10661;SDS011;5379;51.034;7.006;2022-11-11T00:16:21;9.20;;;4.20;;
10661;SDS011;5379;51.034;7.006;2022-11-11T00:18:48;11.80;;;3.43;;
10661;SDS011;5379;51.034;7.006;2022-11-11T00:21:33;7.17;;;3.70;;
10661;SDS011;5379;51.034;7.006;2022-11-11T00:24:20;5.77;;;3.43;;
10661;SDS011;5379;51.034;7.006;2022-11-11T00:27:07;7.90;;;3.60;;
10661;SDS011;5379;51.034;7.006;2022-11-11T00:29:35;4.77;;;3.97;;
10661;SDS011;5379;51.034;7.006;2022-11-11T00:32:02;7.30;;;3.40;;
10661;SDS011;5379;51.034;7.006;2022-11-11T00:34:48;6.20;;;3.70;;
10661;SDS011;5379;51.034;7.006;2022-11-11T00:37:33;8.73;;;3.80;;
10661;SDS011;5379;51.034;7.006;2022-11-11T00:40:02;11.07;;;4.50;;
10661;SDS011;5379;51.034;7.006;2022-11-11T00:42:29;5.50;;;3.50;;
10661;SDS011;5379;51.034;7.006;2022-11-11T00:44:57;6.83;;;3.90;;
10661;SDS011;5379;51.034;7.006;2022-11-11T00:47:23;4.10;;;3.33;;
10661;SDS011;5379;51.034;7.006;2022-11-11T00:50:09;3.40;;;3.10;;
10661;SDS011;5379;51.034;7.006;2022-11-11T00:52:54;6.27;;;4.03;;
10661;SDS011;5379;51.034;7.006;2022-11-11T00:55:23;6.00;;;3.97;;
10661;SDS011;5379;51.034;7.006;2022-11-11T00:57:50;4.33;;;3.80;;
10661;SDS011;5379;51.034;7.006;2022-11-11T01:00:17;3.80;;;3.27;;
10661;SDS011;5379;51.034;7.006;2022-11-11T01:02:44;7.03;;;3.60;;
10661;SDS011;5379;51.034;7.006;2022-11-11T01:05:11;5.33;;;3.60;;
10661;SDS011;5379;51.034;7.006;2022-11-11T01:07:38;7.77;;;4.20;;
10661;SDS011;5379;51.034;7.006;2022-11-11T01:10:05;4.47;;;3.73;;
10661;SDS011;5379;51.034;7.006;2022-11-11T01:12:34;4.67;;;3.73;;
10661;SDS011;5379;51.034;7.006;2022-11-11T01:15:01;4.77;;;3.50;;
10661;SDS011;5379;51.034;7.006;2022-11-11T01:17:28;8.63;;;4.00;;
10661;SDS011;5379;51.034;7.006;2022-11-11T01:19:55;5.53;;;4.00;;
10661;SDS011;5379;51.034;7.006;2022-11-11T01:22:22;8.90;;;4.13;;
10661;SDS011;5379;51.034;7.006;2022-11-11T01:24:49;6.07;;;3.90;;
10661;SDS011;5379;51.034;7.006;2022-11-11T01:27:16;10.50;;;4.00;;
10661;SDS011;5379;51.034;7.006;2022-11-11T01:29:44;6.43;;;3.70;;
10661;SDS011;5379;51.034;7.006;2022-11-11T01:32:11;11.57;;;4.30;;
10661;SDS011;5379;51.034;7.006;2022-11-11T01:34:38;9.23;;;3.57;;
10661;SDS011;5379;51.034;7.006;2022-11-11T01:37:05;7.60;;;3.57;;
10661;SDS011;5379;51.034;7.006;2022-11-11T01:39:32;5.13;;;3.80;;
10661;SDS011;5379;51.034;7.006;2022-11-11T01:41:59;6.17;;;3.53;;
10661;SDS011;5379;51.034;7.006;2022-11-11T01:44:44;3.60;;;3.27;;
10661;SDS011;5379;51.034;7.006;2022-11-11T01:47:12;7.87;;;3.47;;
10661;SDS011;5379;51.034;7.006;2022-11-11T01:49:43;6.50;;;3.90;;
10661;SDS011;5379;51.034;7.006;2022-11-11T01:52:15;4.07;;;3.30;;
10661;SDS011;5379;51.034;7.006;2022-11-11T01:54:45;3.73;;;3.33;;
10661;SDS011;5379;51.034;7.006;2022-11-11T01:57:22;9.47;;;3.50;;
10661;SDS011;5379;51.034;7.006;2022-11-11T01:59:53;8.20;;;4.13;;
10661;SDS011;5379;51.034;7.006;2022-11-11T02:02:27;5.47;;;3.80;;
10661;SDS011;5379;51.034;7.006;2022-11-11T02:04:58;13.90;;;3.83;;
10661;SDS011;5379;51.034;7.006;2022-11-11T02:07:46;3.43;;;3.13;;
10661;SDS011;5379;51.034;7.006;2022-11-11T02:10:14;4.87;;;3.23;;
10661;SDS011;5379;51.034;7.006;2022-11-11T02:12:42;6.60;;;4.00;;
10661;SDS011;5379;51.034;7.006;2022-11-11T02:15:39;5.63;;;3.83;;
10661;SDS011;5379;51.034;7.006;2022-11-11T02:18:06;4.33;;;3.40;;
10661;SDS011;5379;51.034;7.006;2022-11-11T02:20:34;5.97;;;3.60;;
10661;SDS011;5379;51.034;7.006;2022-11-11T02:23:03;6.73;;;3.23;;
10661;SDS011;5379;51.034;7.006;2022-11-11T02:25:37;8.13;;;4.03;;
10661;SDS011;5379;51.034;7.006;2022-11-11T02:28:06;5.97;;;3.37;;
10661;SDS011;5379;51.034;7.006;2022-11-11T02:30:34;5.80;;;3.70;;
10661;SDS011;5379;51.034;7.006;2022-11-11T02:33:01;8.50;;;4.13;;
10661;SDS011;5379;51.034;7.006;2022-11-11T02:35:29;6.47;;;3.73;;
10661;SDS011;5379;51.034;7.006;2022-11-11T02:37:57;4.10;;;3.23;;
10661;SDS011;5379;51.034;7.006;2022-11-11T02:40:26;5.90;;;3.60;;
10661;SDS011;5379;51.034;7.006;2022-11-11T02:42:59;4.13;;;3.70;;
10661;SDS011;5379;51.034;7.006;2022-11-11T02:45:26;5.43;;;3.63;;
10661;SDS011;5379;51.034;7.006;2022-11-11T02:47:53;6.00;;;3.63;;
10661;SDS011;5379;51.034;7.006;2022-11-11T02:50:20;12.07;;;4.03;;
10661;SDS011;5379;51.034;7.006;2022-11-11T02:52:47;4.60;;;3.30;;
10661;SDS011;5379;51.034;7.006;2022-11-11T02:55:14;5.10;;;3.80;;
10661;SDS011;5379;51.034;7.006;2022-11-11T02:57:41;5.47;;;4.00;;
10661;SDS011;5379;51.034;7.006;2022-11-11T03:00:10;7.37;;;3.50;;
10661;SDS011;5379;51.034;7.006;2022-11-11T03:02:38;5.93;;;3.83;;
10661;SDS011;5379;51.034;7.006;2022-11-11T03:05:05;3.77;;;3.33;;
10661;SDS011;5379;51.034;7.006;2022-11-11T03:07:33;4.80;;;3.53;;
10661;SDS011;5379;51.034;7.006;2022-11-11T03:10:00;8.20;;;3.77;;
10661;SDS011;5379;51.034;7.006;2022-11-11T03:12:27;7.33;;;3.90;;
10661;SDS011;5379;51.034;7.006;2022-11-11T03:14:54;6.83;;;4.10;;
10661;SDS011;5379;51.034;7.006;2022-11-11T03:17:22;6.47;;;3.80;;
10661;SDS011;5379;51.034;7.006;2022-11-11T03:20:03;4.10;;;3.43;;
10661;SDS011;5379;51.034;7.006;2022-11-11T03:22:58;4.60;;;3.93;;
10661;SDS011;5379;51.034;7.006;2022-11-11T03:25:25;5.57;;;4.10;;
10661;SDS011;5379;51.034;7.006;2022-11-11T03:28:05;6.83;;;3.73;;
10661;SDS011;5379;51.034;7.006;2022-11-11T03:30:32;8.50;;;4.27;;
10661;SDS011;5379;51.034;7.006;2022-11-11T03:33:01;6.03;;;3.93;;
10661;SDS011;5379;51.034;7.006;2022-11-11T03:35:29;4.63;;;3.73;;
10661;SDS011;5379;51.034;7.006;2022-11-11T03:37:56;5.33;;;3.60;;
10661;SDS011;5379;51.034;7.006;2022-11-11T03:40:40;4.03;;;3.50;;
10661;SDS011;5379;51.034;7.006;2022-11-11T03:43:08;8.00;;;4.07;;
10661;SDS011;5379;51.034;7.006;2022-11-11T03:45:35;4.30;;;3.13;;
10661;SDS011;5379;51.034;7.006;2022-11-11T03:48:04;6.07;;;3.37;;
10661;SDS011;5379;51.034;7.006;2022-11-11T03:50:31;7.30;;;3.50;;
10661;SDS011;5379;51.034;7.006;2022-11-11T03:52:59;4.83;;;3.50;;
10661;SDS011;5379;51.034;7.006;2022-11-11T03:55:26;4.00;;;3.57;;
10661;SDS011;5379;51.034;7.006;2022-11-11T03:57:53;9.30;;;4.47;;
10661;SDS011;5379;51.034;7.006;2022-11-11T04:00:21;7.87;;;3.93;;
10661;SDS011;5379;51.034;7.006;2022-11-11T04:02:49;5.73;;;4.10;;
10661;SDS011;5379;51.034;7.006;2022-11-11T04:05:35;8.77;;;3.93;;
10661;SDS011;5379;51.034;7.006;2022-11-11T04:08:20;4.20;;;3.80;;
10661;SDS011;5379;51.034;7.006;2022-11-11T04:11:06;3.97;;;3.57;;
10661;SDS011;5379;51.034;7.006;2022-11-11T04:13:36;4.10;;;3.70;;
10661;SDS011;5379;51.034;7.006;2022-11-11T04:16:21;5.37;;;4.07;;
10661;SDS011;5379;51.034;7.006;2022-11-11T04:18:48;7.03;;;4.07;;
10661;SDS011;5379;51.034;7.006;2022-11-11T04:21:37;4.33;;;3.90;;
10661;SDS011;5379;51.034;7.006;2022-11-11T04:24:10;4.93;;;3.70;;
10661;SDS011;5379;51.034;7.006;2022-11-11T04:26:56;4.47;;;3.60;;
10661;SDS011;5379;51.034;7.006;2022-11-11T04:29:24;9.43;;;4.47;;
10661;SDS011;5379;51.034;7.006;2022-11-11T04:31:53;4.33;;;3.90;;
10661;SDS011;5379;51.034;7.006;2022-11-11T04:34:38;6.10;;;3.80;;
10661;SDS011;5379;51.034;7.006;2022-11-11T04:37:06;4.53;;;3.40;;
10661;SDS011;5379;51.034;7.006;2022-11-11T04:39:33;6.17;;;4.00;;
10661;SDS011;5379;51.034;7.006;2022-11-11T04:42:17;4.43;;;3.43;;
10661;SDS011;5379;51.034;7.006;2022-11-11T04:44:44;5.00;;;3.70;;
10661;SDS011;5379;51.034;7.006;2022-11-11T04:47:29;4.60;;;4.17;;
10661;SDS011;5379;51.034;7.006;2022-11-11T04:49:56;5.63;;;3.33;;
10661;SDS011;5379;51.034;7.006;2022-11-11T04:52:24;6.20;;;3.47;;
10661;SDS011;5379;51.034;7.006;2022-11-11T04:54:51;4.57;;;4.17;;
10661;SDS011;5379;51.034;7.006;2022-11-11T04:57:37;10.53;;;4.00;;
10661;SDS011;5379;51.034;7.006;2022-11-11T05:00:06;6.03;;;4.43;;
10661;SDS011;5379;51.034;7.006;2022-11-11T05:02:34;4.33;;;3.77;;
10661;SDS011;5379;51.034;7.006;2022-11-11T05:05:18;7.53;;;4.80;;
10661;SDS011;5379;51.034;7.006;2022-11-11T05:07:47;5.47;;;4.03;;
10661;SDS011;5379;51.034;7.006;2022-11-11T05:10:32;5.63;;;3.83;;
10661;SDS011;5379;51.034;7.006;2022-11-11T05:12:59;4.93;;;3.90;;
10661;SDS011;5379;51.034;7.006;2022-11-11T05:15:41;3.37;;;3.17;;
10661;SDS011;5379;51.034;7.006;2022-11-11T05:18:25;8.50;;;4.23;;
10661;SDS011;5379;51.034;7.006;2022-11-11T05:21:11;3.90;;;3.60;;
10661;SDS011;5379;51.034;7.006;2022-11-11T05:23:47;4.33;;;3.93;;
10661;SDS011;5379;51.034;7.006;2022-11-11T05:26:32;4.33;;;3.90;;
10661;SDS011;5379;51.034;7.006;2022-11-11T05:28:59;4.13;;;3.70;;
10661;SDS011;5379;51.034;7.006;2022-11-11T05:31:26;8.53;;;4.17;;
10661;SDS011;5379;51.034;7.006;2022-11-11T05:33:53;4.37;;;3.97;;
10661;SDS011;5379;51.034;7.006;2022-11-11T05:36:21;4.47;;;3.90;;
10661;SDS011;5379;51.034;7.006;2022-11-11T05:38:50;5.83;;;4.40;;
10661;SDS011;5379;51.034;7.006;2022-11-11T05:41:17;9.57;;;5.00;;
10661;SDS011;5379;51.034;7.006;2022-11-11T05:43:43;12.03;;;4.73;;
10661;SDS011;5379;51.034;7.006;2022-11-11T05:46:10;6.23;;;4.43;;
10661;SDS011;5379;51.034;7.006;2022-11-11T05:48:37;7.43;;;5.43;;
10661;SDS011;5379;51.034;7.006;2022-11-11T05:51:24;7.10;;;6.17;;
10661;SDS011;5379;51.034;7.006;2022-11-11T05:53:55;8.20;;;6.00;;
10661;SDS011;5379;51.034;7.006;2022-11-11T05:56:23;8.93;;;6.73;;
10661;SDS011;5379;51.034;7.006;2022-11-11T05:58:50;11.70;;;7.33;;
10661;SDS011;5379;51.034;7.006;2022-11-11T06:01:17;9.40;;;6.67;;
10661;SDS011;5379;51.034;7.006;2022-11-11T06:03:44;7.27;;;5.50;;
10661;SDS011;5379;51.034;7.006;2022-11-11T06:06:12;6.73;;;5.70;;
10661;SDS011;5379;51.034;7.006;2022-11-11T06:08:39;7.87;;;5.40;;
10661;SDS011;5379;51.034;7.006;2022-11-11T06:11:07;8.93;;;5.03;;
10661;SDS011;5379;51.034;7.006;2022-11-11T06:13:34;5.80;;;4.97;;
10661;SDS011;5379;51.034;7.006;2022-11-11T06:16:02;4.87;;;4.10;;
10661;SDS011;5379;51.034;7.006;2022-11-11T06:18:29;7.50;;;4.80;;
10661;SDS011;5379;51.034;7.006;2022-11-11T06:20:57;4.87;;;4.40;;
10661;SDS011;5379;51.034;7.006;2022-11-11T06:23:25;7.13;;;4.03;;
10661;SDS011;5379;51.034;7.006;2022-11-11T06:25:53;4.60;;;4.10;;
10661;SDS011;5379;51.034;7.006;2022-11-11T06:28:41;6.50;;;4.80;;
10661;SDS011;5379;51.034;7.006;2022-11-11T06:31:09;3.87;;;3.57;;
10661;SDS011;5379;51.034;7.006;2022-11-11T06:33:38;6.67;;;4.47;;
10661;SDS011;5379;51.034;7.006;2022-11-11T06:36:05;4.97;;;4.07;;
10661;SDS011;5379;51.034;7.006;2022-11-11T06:38:32;4.80;;;4.30;;
10661;SDS011;5379;51.034;7.006;2022-11-11T06:40:59;9.43;;;5.17;;
10661;SDS011;5379;51.034;7.006;2022-11-11T06:43:26;6.70;;;4.83;;
10661;SDS011;5379;51.034;7.006;2022-11-11T06:45:55;4.67;;;4.27;;
10661;SDS011;5379;51.034;7.006;2022-11-11T06:48:23;11.83;;;4.67;;
10661;SDS011;5379;51.034;7.006;2022-11-11T06:50:51;8.67;;;4.70;;
10661;SDS011;5379;51.034;7.006;2022-11-11T06:53:18;7.53;;;4.43;;
10661;SDS011;5379;51.034;7.006;2022-11-11T06:55:47;4.73;;;3.80;;
10661;SDS011;5379;51.034;7.006;2022-11-11T06:58:17;8.30;;;5.40;;
10661;SDS011;5379;51.034;7.006;2022-11-11T07:00:45;5.00;;;4.40;;
10661;SDS011;5379;51.034;7.006;2022-11-11T07:03:15;11.83;;;4.57;;
10661;SDS011;5379;51.034;7.006;2022-11-11T07:05:43;9.23;;;4.13;;
10661;SDS011;5379;51.034;7.006;2022-11-11T07:08:12;4.47;;;4.07;;
10661;SDS011;5379;51.034;7.006;2022-11-11T07:10:42;9.87;;;4.60;;
10661;SDS011;5379;51.034;7.006;2022-11-11T07:13:10;4.90;;;4.40;;
10661;SDS011;5379;51.034;7.006;2022-11-11T07:15:37;7.13;;;4.20;;
10661;SDS011;5379;51.034;7.006;2022-11-11T07:18:05;4.57;;;3.97;;
10661;SDS011;5379;51.034;7.006;2022-11-11T07:20:33;6.33;;;4.20;;
10661;SDS011;5379;51.034;7.006;2022-11-11T07:23:01;3.93;;;3.53;;
10661;SDS011;5379;51.034;7.006;2022-11-11T07:25:28;4.57;;;4.20;;
10661;SDS011;5379;51.034;7.006;2022-11-11T07:27:55;4.57;;;3.70;;
10661;SDS011;5379;51.034;7.006;2022-11-11T07:30:22;6.27;;;4.33;;
10661;SDS011;5379;51.034;7.006;2022-11-11T07:32:50;4.87;;;4.37;;
10661;SDS011;5379;51.034;7.006;2022-11-11T07:35:18;4.53;;;4.10;;
10661;SDS011;5379;51.034;7.006;2022-11-11T07:37:47;4.77;;;4.17;;
10661;SDS011;5379;51.034;7.006;2022-11-11T07:40:15;6.67;;;4.23;;
10661;SDS011;5379;51.034;7.006;2022-11-11T07:42:43;8.43;;;5.07;;
10661;SDS011;5379;51.034;7.006;2022-11-11T07:45:11;7.57;;;4.57;;
10661;SDS011;5379;51.034;7.006;2022-11-11T07:47:40;5.63;;;4.53;;
10661;SDS011;5379;51.034;7.006;2022-11-11T07:50:08;7.03;;;4.23;;
10661;SDS011;5379;51.034;7.006;2022-11-11T07:52:35;5.87;;;4.27;;
10661;SDS011;5379;51.034;7.006;2022-11-11T07:55:04;6.17;;;4.27;;
10661;SDS011;5379;51.034;7.006;2022-11-11T07:57:32;5.60;;;4.97;;
10661;SDS011;5379;51.034;7.006;2022-11-11T07:59:59;4.40;;;3.97;;
10661;SDS011;5379;51.034;7.006;2022-11-11T08:02:26;6.97;;;4.30;;
10661;SDS011;5379;51.034;7.006;2022-11-11T08:04:53;4.60;;;4.20;;
10661;SDS011;5379;51.034;7.006;2022-11-11T08:07:20;9.80;;;4.53;;
10661;SDS011;5379;51.034;7.006;2022-11-11T08:09:47;5.03;;;4.50;;
10661;SDS011;5379;51.034;7.006;2022-11-11T08:12:15;10.37;;;5.43;;
10661;SDS011;5379;51.034;7.006;2022-11-11T08:15:00;7.60;;;4.17;;
10661;SDS011;5379;51.034;7.006;2022-11-11T08:17:27;7.20;;;4.50;;
10661;SDS011;5379;51.034;7.006;2022-11-11T08:19:54;4.77;;;4.30;;
10661;SDS011;5379;51.034;7.006;2022-11-11T08:22:21;6.93;;;3.63;;
10661;SDS011;5379;51.034;7.006;2022-11-11T08:24:48;5.00;;;3.80;;
10661;SDS011;5379;51.034;7.006;2022-11-11T08:27:16;8.70;;;4.73;;
10661;SDS011;5379;51.034;7.006;2022-11-11T08:29:43;8.33;;;5.13;;
10661;SDS011;5379;51.034;7.006;2022-11-11T08:32:10;5.20;;;4.53;;
10661;SDS011;5379;51.034;7.006;2022-11-11T08:34:37;7.47;;;4.27;;
10661;SDS011;5379;51.034;7.006;2022-11-11T08:37:04;6.07;;;4.77;;
10661;SDS011;5379;51.034;7.006;2022-11-11T08:39:31;4.43;;;4.00;;
10661;SDS011;5379;51.034;7.006;2022-11-11T08:41:58;7.70;;;4.40;;
10661;SDS011;5379;51.034;7.006;2022-11-11T08:44:26;10.90;;;4.67;;
10661;SDS011;5379;51.034;7.006;2022-11-11T08:46:53;4.80;;;4.00;;
10661;SDS011;5379;51.034;7.006;2022-11-11T08:49:20;6.00;;;4.37;;
10661;SDS011;5379;51.034;7.006;2022-11-11T08:51:47;8.50;;;4.27;;
10661;SDS011;5379;51.034;7.006;2022-11-11T08:54:14;3.60;;;3.30;;
10661;SDS011;5379;51.034;7.006;2022-11-11T08:56:41;6.87;;;4.47;;
10661;SDS011;5379;51.034;7.006;2022-11-11T08:59:08;3.47;;;3.23;;
10661;SDS011;5379;51.034;7.006;2022-11-11T09:01:37;5.17;;;3.97;;
10661;SDS011;5379;51.034;7.006;2022-11-11T09:04:04;6.43;;;3.80;;
10661;SDS011;5379;51.034;7.006;2022-11-11T09:06:31;5.77;;;4.17;;
10661;SDS011;5379;51.034;7.006;2022-11-11T09:08:58;3.73;;;3.30;;
10661;SDS011;5379;51.034;7.006;2022-11-11T09:11:25;5.07;;;4.17;;
10661;SDS011;5379;51.034;7.006;2022-11-11T09:13:52;4.90;;;3.80;;
10661;SDS011;5379;51.034;7.006;2022-11-11T09:16:19;8.37;;;4.20;;
10661;SDS011;5379;51.034;7.006;2022-11-11T09:18:47;6.80;;;4.40;;
10661;SDS011;5379;51.034;7.006;2022-11-11T09:21:14;9.07;;;3.73;;
10661;SDS011;5379;51.034;7.006;2022-11-11T09:23:41;4.23;;;3.83;;
10661;SDS011;5379;51.034;7.006;2022-11-11T09:26:08;5.37;;;3.63;;
10661;SDS011;5379;51.034;7.006;2022-11-11T09:28:35;4.03;;;3.53;;
10661;SDS011;5379;51.034;7.006;2022-11-11T09:31:02;8.67;;;3.67;;
10661;SDS011;5379;51.034;7.006;2022-11-11T09:33:29;5.33;;;4.37;;
10661;SDS011;5379;51.034;7.006;2022-11-11T09:35:57;5.30;;;3.30;;
10661;SDS011;5379;51.034;7.006;2022-11-11T09:38:25;7.87;;;4.13;;
10661;SDS011;5379;51.034;7.006;2022-11-11T09:40:55;4.70;;;3.60;;
10661;SDS011;5379;51.034;7.006;2022-11-11T09:43:33;5.07;;;3.83;;
10661;SDS011;5379;51.034;7.006;2022-11-11T09:46:09;4.93;;;3.30;;
10661;SDS011;5379;51.034;7.006;2022-11-11T09:48:50;4.37;;;3.90;;
10661;SDS011;5379;51.034;7.006;2022-11-11T09:51:29;5.13;;;3.37;;
10661;SDS011;5379;51.034;7.006;2022-11-11T09:54:02;4.70;;;3.57;;
10661;SDS011;5379;51.034;7.006;2022-11-11T09:56:32;4.93;;;3.30;;
10661;SDS011;5379;51.034;7.006;2022-11-11T09:59:02;3.30;;;3.00;;
10661;SDS011;5379;51.034;7.006;2022-11-11T10:01:33;5.00;;;3.83;;
10661;SDS011;5379;51.034;7.006;2022-11-11T10:04:06;5.00;;;3.30;;
10661;SDS011;5379;51.034;7.006;2022-11-11T10:06:43;4.37;;;3.03;;
10661;SDS011;5379;51.034;7.006;2022-11-11T10:09:15;4.40;;;3.63;;
10661;SDS011;5379;51.034;7.006;2022-11-11T10:11:48;5.40;;;4.00;;
10661;SDS011;5379;51.034;7.006;2022-11-11T10:14:21;6.63;;;2.90;;
10661;SDS011;5379;51.034;7.006;2022-11-11T10:16:50;3.53;;;3.23;;
10661;SDS011;5379;51.034;7.006;2022-11-11T10:19:26;3.83;;;2.90;;
10661;SDS011;5379;51.034;7.006;2022-11-11T10:21:57;3.73;;;3.00;;
10661;SDS011;5379;51.034;7.006;2022-11-11T10:24:29;5.87;;;2.93;;
10661;SDS011;5379;51.034;7.006;2022-11-11T10:26:58;3.07;;;2.87;;
10661;SDS011;5379;51.034;7.006;2022-11-11T10:29:42;4.17;;;3.10;;
10661;SDS011;5379;51.034;7.006;2022-11-11T10:32:11;2.83;;;2.63;;
10661;SDS011;5379;51.034;7.006;2022-11-11T10:34:43;4.07;;;3.03;;
10661;SDS011;5379;51.034;7.006;2022-11-11T10:37:16;4.37;;;2.70;;
10661;SDS011;5379;51.034;7.006;2022-11-11T10:39:57;5.40;;;3.07;;
10661;SDS011;5379;51.034;7.006;2022-11-11T10:42:30;4.90;;;2.40;;
10661;SDS011;5379;51.034;7.006;2022-11-11T10:44:58;2.47;;;2.27;;
10661;SDS011;5379;51.034;7.006;2022-11-11T10:47:34;4.00;;;2.60;;
10661;SDS011;5379;51.034;7.006;2022-11-11T10:50:10;4.20;;;2.10;;
10661;SDS011;5379;51.034;7.006;2022-11-11T10:52:42;2.47;;;2.27;;
10661;SDS011;5379;51.034;7.006;2022-11-11T10:55:16;7.60;;;2.23;;
10661;SDS011;5379;51.034;7.006;2022-11-11T10:57:48;2.90;;;2.60;;
10661;SDS011;5379;51.034;7.006;2022-11-11T11:00:20;3.40;;;2.50;;
10661;SDS011;5379;51.034;7.006;2022-11-11T11:02:49;4.93;;;2.67;;
10661;SDS011;5379;51.034;7.006;2022-11-11T11:05:23;2.47;;;2.27;;
10661;SDS011;5379;51.034;7.006;2022-11-11T11:07:55;2.50;;;2.30;;
10661;SDS011;5379;51.034;7.006;2022-11-11T11:10:26;7.23;;;2.30;;
10661;SDS011;5379;51.034;7.006;2022-11-11T11:13:02;6.23;;;2.17;;
10661;SDS011;5379;51.034;7.006;2022-11-11T11:15:31;3.20;;;2.33;;
10661;SDS011;5379;51.034;7.006;2022-11-11T11:18:03;2.80;;;1.70;;
10661;SDS011;5379;51.034;7.006;2022-11-11T11:20:33;3.00;;;2.30;;
10661;SDS011;5379;51.034;7.006;2022-11-11T11:23:03;1.70;;;1.60;;
10661;SDS011;5379;51.034;7.006;2022-11-11T11:25:31;2.40;;;2.00;;
10661;SDS011;5379;51.034;7.006;2022-11-11T11:28:05;3.90;;;2.30;;
10661;SDS011;5379;51.034;7.006;2022-11-11T11:30:34;2.03;;;1.87;;
10661;SDS011;5379;51.034;7.006;2022-11-11T11:33:02;2.23;;;2.13;;
10661;SDS011;5379;51.034;7.006;2022-11-11T11:35:31;2.57;;;2.30;;
10661;SDS011;5379;51.034;7.006;2022-11-11T11:38:00;1.70;;;1.40;;
10661;SDS011;5379;51.034;7.006;2022-11-11T11:40:31;2.47;;;2.20;;
10661;SDS011;5379;51.034;7.006;2022-11-11T11:45:59;1.77;;;1.67;;
10661;SDS011;5379;51.034;7.006;2022-11-11T11:48:32;3.90;;;2.00;;
10661;SDS011;5379;51.034;7.006;2022-11-11T11:51:09;2.03;;;1.80;;
10661;SDS011;5379;51.034;7.006;2022-11-11T11:53:56;1.77;;;1.67;;
10661;SDS011;5379;51.034;7.006;2022-11-11T11:56:40;2.13;;;1.93;;
10661;SDS011;5379;51.034;7.006;2022-11-11T11:59:11;3.20;;;1.87;;
10661;SDS011;5379;51.034;7.006;2022-11-11T12:01:46;1.53;;;1.43;;
10661;SDS011;5379;51.034;7.006;2022-11-11T12:07:19;2.07;;;1.90;;
10661;SDS011;5379;51.034;7.006;2022-11-11T12:10:00;2.83;;;2.13;;
10661;SDS011;5379;51.034;7.006;2022-11-11T12:12:37;1.57;;;1.47;;
10661;SDS011;5379;51.034;7.006;2022-11-11T12:15:22;4.00;;;1.80;;
10661;SDS011;5379;51.034;7.006;2022-11-11T12:18:06;4.77;;;1.70;;
10661;SDS011;5379;51.034;7.006;2022-11-11T12:20:47;2.57;;;1.77;;
10661;SDS011;5379;51.034;7.006;2022-11-11T12:23:27;2.53;;;1.67;;
10661;SDS011;5379;51.034;7.006;2022-11-11T12:26:10;3.47;;;1.67;;
10661;SDS011;5379;51.034;7.006;2022-11-11T12:28:49;4.80;;;1.77;;
10661;SDS011;5379;51.034;7.006;2022-11-11T12:31:26;9.10;;;1.57;;
10661;SDS011;5379;51.034;7.006;2022-11-11T12:34:01;1.80;;;1.40;;
10661;SDS011;5379;51.034;7.006;2022-11-11T12:36:39;2.43;;;1.50;;
10661;SDS011;5379;51.034;7.006;2022-11-11T12:39:21;1.50;;;1.40;;
10661;SDS011;5379;51.034;7.006;2022-11-11T12:41:59;1.70;;;1.40;;
10661;SDS011;5379;51.034;7.006;2022-11-11T12:44:39;1.10;;;1.10;;
10661;SDS011;5379;51.034;7.006;2022-11-11T12:47:17;1.47;;;1.17;;
10661;SDS011;5379;51.034;7.006;2022-11-11T12:49:53;1.60;;;1.50;;
10661;SDS011;5379;51.034;7.006;2022-11-11T12:52:29;4.63;;;1.50;;
10661;SDS011;5379;51.034;7.006;2022-11-11T12:55:06;1.50;;;1.30;;
10661;SDS011;5379;51.034;7.006;2022-11-11T12:57:45;2.47;;;1.20;;
10661;SDS011;5379;51.034;7.006;2022-11-11T13:00:25;1.57;;;1.47;;
10661;SDS011;5379;51.034;7.006;2022-11-11T13:03:03;2.37;;;1.80;;
10661;SDS011;5379;51.034;7.006;2022-11-11T13:05:39;1.50;;;1.40;;
10661;SDS011;5379;51.034;7.006;2022-11-11T13:11:13;1.40;;;1.40;;
10661;SDS011;5379;51.034;7.006;2022-11-11T13:13:49;2.60;;;1.77;;
10661;SDS011;5379;51.034;7.006;2022-11-11T13:16:26;1.67;;;1.53;;
10661;SDS011;5379;51.034;7.006;2022-11-11T13:18:54;1.50;;;1.40;;
10661;SDS011;5379;51.034;7.006;2022-11-11T13:21:25;2.77;;;1.60;;
10661;SDS011;5379;51.034;7.006;2022-11-11T13:23:58;1.40;;;1.30;;
10661;SDS011;5379;51.034;7.006;2022-11-11T13:26:26;1.67;;;1.20;;
10661;SDS011;5379;51.034;7.006;2022-11-11T13:29:00;2.90;;;1.17;;
10661;SDS011;5379;51.034;7.006;2022-11-11T13:31:42;4.23;;;1.40;;
10661;SDS011;5379;51.034;7.006;2022-11-11T13:34:12;2.23;;;1.20;;
10661;SDS011;5379;51.034;7.006;2022-11-11T13:36:41;0.93;;;0.93;;
10661;SDS011;5379;51.034;7.006;2022-11-11T13:39:20;1.60;;;1.23;;
10661;SDS011;5379;51.034;7.006;2022-11-11T13:41:54;2.83;;;1.60;;
10661;SDS011;5379;51.034;7.006;2022-11-11T13:44:23;2.00;;;1.33;;
10661;SDS011;5379;51.034;7.006;2022-11-11T13:46:59;1.73;;;1.60;;
10661;SDS011;5379;51.034;7.006;2022-11-11T13:49:30;1.07;;;1.07;;
10661;SDS011;5379;51.034;7.006;2022-11-11T13:52:01;1.97;;;1.10;;
10661;SDS011;5379;51.034;7.006;2022-11-11T13:54:30;1.10;;;1.10;;
10661;SDS011;5379;51.034;7.006;2022-11-11T13:57:00;4.23;;;1.27;;
10661;SDS011;5379;51.034;7.006;2022-11-11T13:59:32;2.10;;;1.30;;
10661;SDS011;5379;51.034;7.006;2022-11-11T14:02:24;1.87;;;1.47;;
10661;SDS011;5379;51.034;7.006;2022-11-11T14:07:47;1.33;;;1.23;;
10661;SDS011;5379;51.034;7.006;2022-11-11T14:13:39;0.93;;;0.90;;
10661;SDS011;5379;51.034;7.006;2022-11-11T14:16:10;1.10;;;1.00;;
10661;SDS011;5379;51.034;7.006;2022-11-11T14:18:59;1.47;;;1.37;;
10661;SDS011;5379;51.034;7.006;2022-11-11T14:21:53;1.40;;;1.30;;
10661;SDS011;5379;51.034;7.006;2022-11-11T14:24:22;1.03;;;1.03;;
10661;SDS011;5379;51.034;7.006;2022-11-11T14:26:58;1.43;;;1.30;;
10661;SDS011;5379;51.034;7.006;2022-11-11T14:29:28;2.40;;;1.60;;
10661;SDS011;5379;51.034;7.006;2022-11-11T14:35:11;1.33;;;1.27;;
10661;SDS011;5379;51.034;7.006;2022-11-11T14:40:45;1.37;;;1.27;;
10661;SDS011;5379;51.034;7.006;2022-11-11T14:46:00;2.17;;;1.40;;
10661;SDS011;5379;51.034;7.006;2022-11-11T14:54:24;1.73;;;1.63;;
10661;SDS011;5379;51.034;7.006;2022-11-11T14:57:10;1.50;;;1.13;;
10661;SDS011;5379;51.034;7.006;2022-11-11T14:59:46;1.40;;;1.30;;
10661;SDS011;5379;51.034;7.006;2022-11-11T15:04:59;5.27;;;1.50;;
10661;SDS011;5379;51.034;7.006;2022-11-11T15:10:42;2.10;;;0.97;;
10661;SDS011;5379;51.034;7.006;2022-11-11T15:16:20;1.43;;;1.30;;
10661;SDS011;5379;51.034;7.006;2022-11-11T15:19:04;1.07;;;1.07;;
10661;SDS011;5379;51.034;7.006;2022-11-11T15:21:42;1.80;;;1.10;;
10661;SDS011;5379;51.034;7.006;2022-11-11T15:24:21;1.07;;;1.07;;
10661;SDS011;5379;51.034;7.006;2022-11-11T15:26:59;2.83;;;1.23;;
10661;SDS011;5379;51.034;7.006;2022-11-11T15:29:41;7.97;;;1.00;;
10661;SDS011;5379;51.034;7.006;2022-11-11T15:32:26;2.47;;;1.60;;
10661;SDS011;5379;51.034;7.006;2022-11-11T15:37:56;13.60;;;1.73;;
10661;SDS011;5379;51.034;7.006;2022-11-11T15:40:29;1.50;;;1.40;;
10661;SDS011;5379;51.034;7.006;2022-11-11T15:43:10;1.23;;;1.13;;
10661;SDS011;5379;51.034;7.006;2022-11-11T15:45:42;3.47;;;1.40;;
10661;SDS011;5379;51.034;7.006;2022-11-11T15:48:13;1.10;;;1.10;;
10661;SDS011;5379;51.034;7.006;2022-11-11T15:50:44;1.40;;;1.30;;
10661;SDS011;5379;51.034;7.006;2022-11-11T15:53:16;6.77;;;1.80;;
10661;SDS011;5379;51.034;7.006;2022-11-11T15:55:51;2.00;;;1.30;;
10661;SDS011;5379;51.034;7.006;2022-11-11T15:58:25;2.90;;;1.30;;
10661;SDS011;5379;51.034;7.006;2022-11-11T16:00:53;3.60;;;1.83;;
10661;SDS011;5379;51.034;7.006;2022-11-11T16:03:23;1.73;;;1.30;;
10661;SDS011;5379;51.034;7.006;2022-11-11T16:05:55;1.30;;;1.23;;
10661;SDS011;5379;51.034;7.006;2022-11-11T16:08:22;2.30;;;1.30;;
10661;SDS011;5379;51.034;7.006;2022-11-11T16:10:52;2.73;;;1.27;;